Airport View

Enter AWOS ICAO identifier for current METAR.

ex. KFNL

KOMH 300355Z AUTO 02009G16KT 10SM SCT010 OVC022 10/08 A2959 RMK AO2

30 Oct 2020 04:01

Frequency: 118.075

Phone: 540-672-0505

Other Area AWOS: KGVE - KLKU - KCJR - KCHO

TAF KCHO 292346Z 3000/3024 05014KT 5SM -SHRA BKN005 OVC015 FM300300 36008KT 4SM -SHRA BR OVC008 FM301000 35009KT P6SM BKN025 FM301600 34011G21KT P6SM BKN025 FM302100 34010KT P6SM SCT040